createdAt,value
2023-01-13T00:03:10.537Z,17.98
2023-01-13T00:11:15.846Z,16.50
2023-01-13T00:19:23.892Z,16.80
2023-01-13T00:27:31.758Z,16.55
2023-01-13T00:35:39.646Z,15.05
2023-01-13T00:43:45.417Z,14.27
2023-01-13T00:51:53.367Z,14.07
2023-01-13T00:59:58.836Z,16.00
2023-01-13T01:08:07.022Z,20.63
2023-01-13T01:16:14.440Z,22.27
2023-01-13T01:24:22.555Z,21.63
2023-01-13T01:32:27.862Z,18.90
2023-01-13T01:40:35.870Z,17.38
2023-01-13T01:48:45.017Z,18.88
2023-01-13T01:56:53.320Z,19.75
2023-01-13T02:04:58.931Z,19.90
2023-01-13T02:13:11.537Z,17.27
2023-01-13T02:21:41.051Z,18.77
2023-01-13T02:30:15.774Z,20.73
2023-01-13T02:38:25.948Z,21.73
2023-01-13T02:46:37.819Z,21.27
2023-01-13T02:54:47.455Z,20.40
2023-01-13T03:02:55.687Z,17.30
2023-01-13T03:11:07.593Z,17.15
2023-01-13T03:19:30.018Z,17.15
2023-01-13T03:27:40.136Z,16.23
2023-01-13T03:35:52.646Z,15.93
2023-01-13T03:44:18.774Z,15.25
2023-01-13T03:52:29.221Z,15.75
2023-01-13T04:00:39.311Z,14.98
2023-01-13T04:08:54.550Z,16.17
2023-01-13T04:17:00.308Z,16.65
2023-01-13T04:25:09.176Z,14.18
2023-01-13T04:33:14.813Z,14.48
2023-01-13T04:41:22.855Z,15.35
2023-01-13T04:49:28.185Z,14.98
2023-01-13T04:57:37.844Z,16.35
2023-01-13T05:05:43.363Z,15.13
2023-01-13T05:14:03.631Z,15.88
2023-01-13T05:22:21.327Z,15.75
2023-01-13T05:30:31.348Z,15.02
2023-01-13T05:38:36.637Z,14.52
2023-01-13T05:46:44.694Z,10.93
2023-01-13T05:54:51.170Z,11.10
2023-01-13T06:02:59.136Z,10.20
2023-01-13T06:11:04.521Z,10.85
2023-01-13T06:19:13.324Z,9.70
2023-01-13T06:27:19.752Z,13.68
2023-01-13T06:35:31.841Z,12.80
2023-01-13T06:43:37.318Z,14.32
2023-01-13T06:51:45.255Z,15.05
2023-01-13T06:59:50.734Z,14.75
2023-01-13T07:07:58.671Z,13.27
2023-01-13T07:16:05.553Z,15.40
2023-01-13T07:24:13.551Z,15.57
2023-01-13T07:32:18.977Z,16.40
2023-01-13T07:40:28.758Z,17.60
2023-01-13T07:48:35.584Z,16.52
2023-01-13T07:56:43.503Z,12.32
2023-01-13T08:04:48.742Z,11.73
2023-01-13T08:13:09.029Z,10.50
2023-01-13T08:21:16.485Z,10.35
2023-01-13T08:29:24.513Z,9.65
2023-01-13T08:37:29.907Z,9.07
2023-01-13T08:45:37.973Z,13.18
2023-01-13T08:53:45.030Z,12.40
2023-01-13T09:01:53.146Z,9.57
2023-01-13T09:09:58.837Z,8.65
2023-01-13T09:18:07.056Z,6.47
2023-01-13T09:26:14.020Z,6.30
2023-01-13T09:34:35.887Z,4.47
2023-01-13T09:43:01.577Z,5.15
2023-01-13T09:51:17.650Z,5.00
2023-01-13T09:59:23.019Z,4.72
2023-01-13T10:07:34.809Z,4.80
2023-01-13T10:15:40.139Z,4.50
2023-01-13T10:24:00.204Z,5.57
2023-01-13T10:32:05.626Z,5.20
2023-01-13T10:40:21.222Z,4.75
2023-01-13T10:48:35.418Z,6.22
2023-01-13T10:56:45.480Z,6.65
2023-01-13T11:05:06.151Z,7.68
2023-01-13T11:13:18.727Z,6.55
2023-01-13T11:21:29.838Z,6.57
2023-01-13T11:29:45.705Z,7.38
2023-01-13T11:37:56.732Z,7.88
2023-01-13T11:46:05.055Z,7.97
2023-01-13T11:54:42.542Z,8.38
2023-01-13T12:03:23.305Z,8.40
2023-01-13T12:11:34.098Z,7.13
2023-01-13T12:19:42.448Z,6.82
2023-01-13T12:27:56.615Z,6.47
2023-01-13T12:36:09.029Z,5.68
2023-01-13T12:44:20.583Z,5.20
2023-01-13T12:52:26.537Z,5.80
2023-01-13T13:00:40.959Z,4.93
2023-01-13T13:09:03.618Z,5.32
2023-01-13T13:17:44.554Z,5.43
2023-01-13T13:26:04.817Z,5.97
2023-01-13T13:34:27.303Z,3.90
2023-01-13T13:42:53.564Z,3.72
2023-01-13T13:51:04.358Z,4.90
2023-01-13T13:59:13.472Z,4.32
2023-01-13T14:07:24.558Z,5.30
2023-01-13T14:15:36.024Z,4.63
2023-01-13T14:23:53.125Z,5.22
2023-01-13T14:31:58.605Z,4.80
2023-01-13T14:40:07.964Z,5.25
2023-01-13T14:48:13.431Z,6.10
2023-01-13T14:56:43.642Z,5.30
2023-01-13T15:04:48.941Z,4.93
2023-01-13T15:12:58.730Z,4.72
2023-01-13T15:21:04.225Z,5.03
2023-01-13T15:29:16.887Z,4.75
2023-01-13T15:37:31.245Z,5.00
2023-01-13T15:45:55.825Z,5.00
2023-01-13T15:54:02.676Z,6.40
2023-01-13T16:02:18.728Z,5.38
2023-01-13T16:10:26.844Z,8.18
2023-01-13T16:18:34.810Z,10.98
2023-01-13T16:26:41.425Z,12.90
2023-01-13T16:34:49.689Z,12.55
2023-01-13T16:42:55.742Z,14.73
2023-01-13T16:51:05.209Z,17.52
2023-01-13T16:59:12.097Z,16.42
2023-01-13T17:07:20.832Z,17.48
2023-01-13T17:15:26.091Z,17.02
2023-01-13T17:23:33.959Z,18.27
2023-01-13T17:31:39.462Z,17.58
2023-01-13T17:39:48.741Z,15.48
2023-01-13T17:47:54.027Z,15.88
2023-01-13T17:56:02.430Z,16.25
2023-01-13T18:04:08.087Z,19.15
2023-01-13T18:12:16.033Z,15.93
2023-01-13T18:20:34.090Z,16.92
2023-01-13T18:28:42.486Z,15.48
2023-01-13T18:36:48.413Z,15.93
2023-01-13T18:44:57.175Z,16.67
2023-01-13T18:53:02.539Z,16.42
2023-01-13T19:01:10.912Z,16.73
2023-01-13T19:09:16.526Z,15.82
2023-01-13T19:17:26.155Z,15.60
2023-01-13T19:25:31.529Z,17.17
2023-01-13T19:33:42.947Z,18.65
2023-01-13T19:42:00.652Z,18.40
2023-01-13T19:50:08.955Z,19.30
2023-01-13T19:58:14.237Z,19.35
2023-01-13T20:06:22.234Z,20.17
2023-01-13T20:14:28.573Z,17.23
2023-01-13T20:22:37.597Z,17.65
2023-01-13T20:30:43.449Z,17.27
2023-01-13T20:38:51.559Z,19.13
2023-01-13T20:46:58.048Z,19.00
2023-01-13T20:55:06.263Z,19.10
2023-01-13T21:03:11.647Z,21.80
2023-01-13T21:11:40.208Z,26.92
2023-01-13T21:19:45.503Z,26.98
2023-01-13T21:27:55.559Z,29.60
2023-01-13T21:36:01.068Z,30.20
2023-01-13T21:44:21.874Z,30.33
2023-01-13T21:52:27.324Z,27.50
2023-01-13T22:00:35.310Z,26.08
2023-01-13T22:08:40.921Z,26.38
2023-01-13T22:16:50.228Z,30.15
2023-01-13T22:24:56.526Z,28.70
2023-01-13T22:33:04.428Z,37.53
2023-01-13T22:41:11.356Z,26.17
2023-01-13T22:49:20.714Z,25.95
2023-01-13T22:57:26.054Z,27.55
2023-01-13T23:05:33.982Z,21.25
2023-01-13T23:13:41.323Z,21.73
2023-01-13T23:21:58.531Z,23.35
2023-01-13T23:30:05.121Z,26.70
2023-01-13T23:38:13.106Z,24.95
2023-01-13T23:46:20.251Z,23.52
2023-01-13T23:54:28.221Z,16.20
